Time;durP1;ratioP1;P1;durP2;ratioP2;P2;SDS_P1;SDS_P2;PMS_P1;PMS_P2;Temp;Humidity;BMP_temperature;BMP_pressure;BME280_temperature;BME280_humidity;BME280_pressure;Samples;Min_cycle;Max_cycle;Signal;HPM_P1;HPM_P2
2022/01/04 00:00:47;;;;;;;5.50;2.55;;;;;;;12.76;59.26;98930.33;1793138;110;25472;-88
2022/01/04 00:04:36;;;;;;;5.42;3.33;;;;;;;12.78;59.23;98934.22;1793467;108;25865;-87
2022/01/04 00:08:15;;;;;;;3.67;2.55;;;;;;;12.78;59.24;98931.16;1770635;110;25950;-89
2022/01/04 00:15:45;;;;;;;;;;;;;;;;;;;;;
2022/01/04 00:26:46;;;;;;;;;;;;;;;;;;;;;
2022/01/04 00:30:28;;;;;;;7.72;3.62;;;;;;;12.76;59.15;98923.34;1825121;107;25900;-90
2022/01/04 00:37:39;;;;;;;5.58;3.95;;;;;;;12.74;59.18;98917.25;1818669;106;25900;-88
2022/01/04 00:41:21;;;;;;;4.40;3.20;;;;;;;12.74;59.18;98922.48;1819453;105;25841;-89
2022/01/04 00:45:17;;;;;;;7.40;3.17;;;;;;;12.74;59.18;98919.00;1828430;106;25862;-89
2022/01/04 00:49:23;;;;;;;;;;;;;;;;;;;;;
2022/01/04 00:53:39;;;;;;;7.10;3.65;;;;;;;12.73;59.16;98910.30;1765285;110;26023;-88
2022/01/04 01:14:09;;;;;;;6.62;3.15;;;;;;;12.69;59.19;98885.06;1765871;110;25865;-88
2022/01/04 01:18:02;;;;;;;;;;;;;;;;;;;;;
2022/01/04 01:22:01;;;;;;;5.62;3.67;;;;;;;12.64;59.18;98890.76;1656493;114;25992;-89
2022/01/04 01:25:46;;;;;;;6.87;3.33;;;;;;;12.62;59.20;98878.16;1658396;117;25846;-90
2022/01/04 01:29:39;;;;;;;9.10;4.25;;;;;;;12.59;59.18;98869.03;1653541;117;25845;-88
2022/01/04 01:33:28;;;;;;;;;;;;;;;;;;;;;
2022/01/04 01:38:16;;;;;;;;;;;;;;;;;;;;;
2022/01/04 01:42:19;;;;;;;;;;;;;;;;;;;;;
2022/01/04 01:45:59;;;;;;;;;;;;;;;;;;;;;
2022/01/04 01:50:27;;;;;;;;;;;;;;;;;;;;;
2022/01/04 01:54:03;;;;;;;6.47;3.55;;;;;;;12.43;59.27;98853.91;1608131;120;26067;-89
2022/01/04 01:57:47;;;;;;;6.33;3.45;;;;;;;12.41;59.29;98856.97;;;;
2022/01/04 02:01:18;;;;;;;7.05;3.25;;;;;;;12.39;59.27;98856.13;1589768;123;25961;-88
2022/01/04 02:09:50;;;;;;;5.67;3.60;;;;;;;12.36;59.31;98846.14;1608031;120;26094;-88
2022/01/04 02:13:36;;;;;;;5.55;2.90;;;;;;;12.34;59.31;98849.20;1615092;121;26074;-88
2022/01/04 02:17:00;;;;;;;9.63;3.05;;;;;;;12.33;59.33;98853.56;1627718;119;26221;-87
2022/01/04 02:30:56;;;;;;;7.45;3.50;;;;;;;12.31;59.32;98838.77;1664624;117;25851;-88
2022/01/04 02:34:26;;;;;;;5.05;3.10;;;;;;;12.27;59.29;98830.95;1664839;115;25883;-88
2022/01/04 02:38:09;;;;;;;6.37;3.20;;;;;;;12.27;59.29;98840.54;1664851;116;25504;-88
2022/01/04 02:41:54;;;;;;;7.08;3.40;;;;;;;12.26;59.28;98834.45;1683754;114;25882;-88
2022/01/04 02:45:29;;;;;;;8.33;4.15;;;;;;;12.24;59.28;98825.75;1661817;116;25936;-88
2022/01/04 02:49:10;;;;;;;8.48;4.08;;;;;;;12.25;59.28;98833.14;1662677;116;25937;-89
2022/01/04 02:52:38;;;;;;;5.87;3.87;;;;;;;12.22;59.26;98825.36;1681317;112;25938;-89
2022/01/04 02:56:34;;;;;;;6.12;3.75;;;;;;;12.23;59.21;98827.08;1753192;112;25870;-89
2022/01/04 03:03:19;;;;;;;10.40;4.15;;;;;;;12.22;59.18;98814.91;1740910;112;25989;-90
2022/01/04 03:07:10;;;;;;;7.50;4.08;;;;;;;12.21;59.17;98807.48;1742058;112;25946;-89
2022/01/04 03:10:48;;;;;;;8.10;3.58;;;;;;;12.20;59.14;98798.36;1714994;113;25927;-87
2022/01/04 03:14:26;;;;;;;7.83;3.92;;;;;;;12.17;59.15;98796.63;1720003;113;26106;-92
2022/01/04 03:18:01;;;;;;;7.22;4.00;;;;;;;12.19;59.14;98800.11;1737062;110;25908;-88
2022/01/04 03:21:26;;;;;;;6.67;3.30;;;;;;;12.19;59.11;98794.89;1686438;115;26010;-88
2022/01/04 03:25:04;;;;;;;;;;;;;;;;;;;;;
2022/01/04 03:28:45;;;;;;;6.47;4.40;;;;;;;12.17;59.06;98786.19;1687065;115;25963;-88
2022/01/04 03:32:29;;;;;;;9.35;4.05;;;;;;;12.16;59.06;98792.30;1687709;115;25899;-87
2022/01/04 03:36:26;;;;;;;;;;;;;;;;;;;;;
2022/01/04 03:39:46;;;;;;;11.73;4.90;;;;;;;12.14;58.99;98786.66;1736615;111;26125;-88
2022/01/04 03:43:29;;;;;;;5.45;3.45;;;;;;;12.12;59.00;98777.54;1736007;112;26239;-87
2022/01/04 03:47:12;;;;;;;9.30;3.40;;;;;;;12.12;59.01;98775.38;1736253;112;25819;-89
2022/01/04 03:50:48;;;;;;;6.15;3.40;;;;;;;12.12;58.99;98764.48;1777021;110;25903;-88
2022/01/04 03:54:19;;;;;;;5.67;3.40;;;;;;;12.13;58.97;98771.87;1775878;109;25883;-88
2022/01/04 03:58:13;;;;;;;7.75;3.60;;;;;;;12.12;58.95;98770.15;1798774;109;26559;-89
2022/01/04 04:05:18;;;;;;;7.95;3.55;;;;;;;12.13;58.88;98768.81;1838655;107;25810;-88
2022/01/04 04:08:57;;;;;;;4.65;2.95;;;;;;;12.13;58.88;98755.75;1838071;106;26026;-88
2022/01/04 04:13:04;;;;;;;8.35;3.17;;;;;;;12.13;58.87;98753.59;1832305;106;25900;-89
2022/01/04 04:17:04;;;;;;;;;;;;;;;;;;;;;
2022/01/04 04:20:48;;;;;;;4.75;2.90;;;;;;;12.12;58.82;98747.95;1813780;106;25804;-88
2022/01/04 04:24:32;;;;;;;5.85;2.90;;;;;;;12.10;58.79;98751.00;1811524;107;25905;-91
2022/01/04 04:28:12;;;;;;;8.80;3.87;;;;;;;12.07;58.79;98750.58;1797052;108;25895;-87
2022/01/04 04:32:00;;;;;;;7.45;3.20;;;;;;;12.05;58.79;98752.35;1798096;107;26036;-87
2022/01/04 04:36:26;;;;;;;;;;;;;;;;;;;;;
2022/01/04 04:41:06;;;;;;;;;;;;;;;;;;;;;
2022/01/04 04:45:14;;;;;;;;;;;;;;;;;;;;;
2022/01/04 04:49:15;;;;;;;;;;;;;;;;;;;;;
2022/01/04 04:52:45;;;;;;;5.05;3.70;;;;;;;11.95;58.71;98745.48;1765741;108;25838;-89
2022/01/04 04:56:38;;;;;;;;;;;;;;;;;;;;;
2022/01/04 05:00:09;;;;;;;4.83;2.92;;;;;;;11.95;58.71;98733.73;1781578;109;26224;-88
2022/01/04 05:03:54;;;;;;;;;;;;;;;;;;;;;
2022/01/04 05:07:51;;;;;;;;;;;;;;;;;;;;;
2022/01/04 05:15:02;;;;;;;5.05;3.30;;;;;;;11.94;58.67;98730.22;1744703;111;25849;-89
2022/01/04 05:18:41;;;;;;;5.75;3.45;;;;;;;11.95;58.67;98724.14;1694644;111;25856;-89
2022/01/04 05:29:48;;;;;;;6.87;3.25;;;;;;;11.97;58.65;98725.42;1788657;109;25851;-88
2022/01/04 05:33:39;;;;;;;6.03;3.37;;;;;;;11.97;58.63;98729.34;1769530;110;25850;-87
2022/01/04 05:37:26;;;;;;;5.72;3.33;;;;;;;11.97;58.61;98720.20;1769438;109;26000;-89
2022/01/04 05:41:18;;;;;;;;;;;;;;;;;;;;;
2022/01/04 06:16:59;;;;;;;;;;;;;;;;;;;;;
2022/01/04 06:20:36;;;;;;;4.30;3.05;;;;;;;11.87;58.71;98681.98;1778239;109;26379;-89
2022/01/04 06:24:20;;;;;;;5.40;3.50;;;;;;;11.86;58.74;98683.73;1773382;108;26366;-87
2022/01/04 06:31:47;;;;;;;4.53;3.05;;;;;;;11.84;58.74;98689.41;1773002;110;26101;-89
2022/01/04 06:35:33;;;;;;;;;;;;;;;;;;;;;
2022/01/04 06:39:38;;;;;;;;;;;;;;;;;;;;;
2022/01/04 06:42:58;;;;;;;6.75;3.58;;;;;;;11.83;58.78;98682.42;1714652;108;26011;-89
2022/01/04 06:46:31;;;;;;;7.62;3.67;;;;;;;11.83;58.77;98671.98;1712083;115;25912;-88
2022/01/04 06:50:15;;;;;;;4.90;2.85;;;;;;;11.84;58.80;98685.48;1712375;110;25918;-87
2022/01/04 06:53:45;;;;;;;7.55;3.20;;;;;;;11.84;58.79;98688.09;1720934;112;25918;-88
2022/01/04 06:57:14;;;;;;;6.67;3.05;;;;;;;11.83;58.79;98695.03;1722492;113;26109;-87
2022/01/04 07:00:44;;;;;;;6.03;3.62;;;;;;;11.86;58.78;98688.09;1817370;104;26100;-88
2022/01/04 07:04:15;;;;;;;6.17;2.62;;;;;;;11.86;58.77;98689.41;1882942;104;25746;-89
2022/01/04 07:08:00;;;;;;;;;;;;;;;;;;;;;
2022/01/04 07:11:33;;;;;;;4.55;3.25;;;;;;;11.88;58.73;98678.48;1842210;107;25817;-89
2022/01/04 07:15:12;;;;;;;6.30;2.92;;;;;;;11.88;58.70;98668.94;1818303;107;26020;-89
2022/01/04 07:18:46;;;;;;;8.20;3.72;;;;;;;11.89;58.68;98663.27;1831571;106;26693;-88
2022/01/04 07:22:16;;;;;;;7.80;3.58;;;;;;;11.89;58.65;98655.44;1832669;107;26099;-89
2022/01/04 07:26:00;;;;;;;;;;;;;;;;;;;;;
2022/01/04 07:29:20;;;;;;;6.47;3.85;;;;;;;11.91;58.61;98662.80;1853966;105;25726;-90
2022/01/04 07:32:51;;;;;;;5.85;3.37;;;;;;;11.93;58.59;98661.91;1856304;105;25811;-90
2022/01/04 07:36:20;;;;;;;7.17;3.33;;;;;;;11.94;58.55;98661.02;1856119;105;25744;-89
2022/01/04 07:39:54;;;;;;;8.00;3.77;;;;;;;11.95;58.52;98662.77;1749813;106;26042;-88
2022/01/04 07:43:22;;;;;;;6.75;3.42;;;;;;;11.97;58.51;98657.08;1714410;111;26204;-87
2022/01/04 07:46:56;;;;;;;8.13;3.83;;;;;;;11.99;58.45;98650.55;1740090;112;26508;-89
2022/01/04 07:50:26;;;;;;;6.17;3.98;;;;;;;12.02;58.44;98646.61;1716788;114;25956;-89
2022/01/04 07:54:02;;;;;;;6.37;3.67;;;;;;;12.05;58.45;98637.44;1714909;113;31436;-87
2022/01/04 07:57:38;;;;;;;5.90;3.52;;;;;;;12.10;58.42;98641.30;1705666;114;26006;-88
2022/01/04 08:01:13;;;;;;;4.92;3.50;;;;;;;12.12;58.37;98640.85;1706563;114;25920;-89
2022/01/04 08:04:38;;;;;;;8.48;4.22;;;;;;;12.13;58.30;98639.52;1685134;115;25871;-88
2022/01/04 08:08:10;;;;;;;5.20;3.25;;;;;;;12.15;58.28;98631.64;1688220;115;25857;-89
2022/01/04 08:11:31;;;;;;;7.72;4.42;;;;;;;12.15;58.26;98630.34;1674372;116;25959;-89
2022/01/04 08:14:57;;;;;;;5.70;3.45;;;;;;;12.17;58.23;98623.36;1686033;117;25963;-91
2022/01/04 08:18:34;;;;;;;6.33;3.02;;;;;;;12.19;58.22;98621.61;1645424;117;25807;-88
2022/01/04 08:22:35;;;;;;;;;;;;;;;;;;;;;
2022/01/04 08:26:18;;;;;;;5.67;4.22;;;;;;;12.31;58.19;98599.69;1693467;116;26373;-88
2022/01/04 08:30:06;;;;;;;6.90;3.80;;;;;;;12.47;58.07;98588.17;1715899;115;26031;-89
2022/01/04 08:33:28;;;;;;;4.20;3.37;;;;;;;12.68;57.87;98580.48;1716996;110;26099;-88
2022/01/04 08:37:04;;;;;;;6.08;3.72;;;;;;;12.89;57.59;98563.61;1715638;113;25970;-90
2022/01/04 08:47:49;;;;;;;5.33;3.70;;;;;;;13.26;56.96;98565.25;2313481;83;25799;-89
2022/01/04 08:51:38;;;;;;;3.90;3.20;;;;;;;13.11;56.63;98515.77;2279742;85;25807;-90
2022/01/04 08:55:14;;;;;;;;;;;;;;;;;;;;;
2022/01/04 08:58:47;;;;;;;5.87;3.83;;;;;;;13.21;56.63;98539.13;2203503;88;26134;-87
2022/01/04 09:02:29;;;;;;;;;;;;;;;;;;;;;
2022/01/04 09:06:01;;;;;;;4.65;4.15;;;;;;;13.26;56.58;98538.22;2120084;91;25825;-92
2022/01/04 09:13:36;;;;;;;;;;;;;;;;;;;;;
2022/01/04 09:20:59;;;;;;;6.42;3.85;;;;;;;13.32;56.25;98501.48;1979317;97;25763;-84
2022/01/04 09:24:37;;;;;;;5.47;3.77;;;;;;;13.43;56.16;98518.74;1980187;98;25792;-83
2022/01/04 09:28:22;;;;;;;5.85;3.98;;;;;;;13.33;55.63;98522.83;2001624;97;25809;-85
2022/01/04 09:32:26;;;;;;;;;;;;;;;;;;;;;
2022/01/04 09:35:57;;;;;;;5.03;3.62;;;;;;;13.14;55.76;98517.03;1863705;103;25891;-87
2022/01/04 09:39:40;;;;;;;5.62;3.45;;;;;;;13.14;55.84;98515.72;1824267;107;25488;-87
2022/01/04 09:43:09;;;;;;;5.00;4.03;;;;;;;13.18;56.11;98499.08;1834168;105;25868;-86
2022/01/04 09:46:46;;;;;;;7.50;3.85;;;;;;;13.28;56.04;98501.98;1839126;105;25883;-85
2022/01/04 09:50:15;;;;;;;7.12;4.00;;;;;;;13.34;55.88;98490.56;1845940;105;25974;-87
2022/01/04 09:53:37;;;;;;;5.90;4.05;;;;;;;13.34;55.58;98480.09;1848489;106;26509;-86
2022/01/04 09:57:05;;;;;;;6.22;4.35;;;;;;;13.32;55.41;98478.79;1851203;102;25921;-87
2022/01/04 10:00:42;;;;;;;5.33;3.77;;;;;;;13.15;55.27;98444.19;1933534;100;26071;-86
2022/01/04 10:04:12;;;;;;;3.92;3.12;;;;;;;13.19;55.08;98461.10;1939594;99;25835;-82
2022/01/04 10:07:40;;;;;;;8.05;3.50;;;;;;;13.19;55.83;98457.17;1972836;97;26131;-85
2022/01/04 10:11:11;;;;;;;5.08;3.25;;;;;;;13.19;55.83;98457.17;1948043;101;25765;-83
2022/01/04 10:14:59;;;;;;;3.70;3.05;;;;;;;13.30;55.81;98463.58;1948517;100;26096;-85
2022/01/04 10:18:29;;;;;;;8.33;2.75;;;;;;;13.39;56.04;98446.38;1929562;101;26432;-86
2022/01/04 10:22:30;;;;;;;4.22;2.90;;;;;;;13.48;56.98;98442.74;1954893;97;25893;-91
2022/01/04 10:26:13;;;;;;;7.25;3.20;;;;;;;13.51;57.20;98433.97;1940942;100;25858;-91
2022/01/04 10:29:40;;;;;;;3.98;3.30;;;;;;;13.53;57.69;98434.34;1975089;98;25911;-88
2022/01/04 10:33:33;;;;;;;;;;;;;;;;;;;;;
2022/01/04 10:37:31;;;;;;;;;;;;;;;;;;;;;
2022/01/04 10:40:44;;;;;;;4.20;3.60;;;;;;;13.15;57.59;98397.09;2094608;93;25704;-89
2022/01/04 10:44:21;;;;;;;6.55;3.33;;;;;;;13.22;57.71;98404.80;2094108;89;25828;-88
2022/01/04 10:47:51;;;;;;;4.77;3.70;;;;;;;13.22;57.71;98404.80;2115396;92;25777;-88
2022/01/04 10:55:25;;;;;;;3.95;3.17;;;;;;;13.25;57.83;98395.21;2080757;94;25767;-87
2022/01/04 10:59:02;;;;;;;5.58;3.75;;;;;;;13.27;57.91;98384.28;2073534;92;25767;-88
2022/01/04 11:02:45;;;;;;;4.30;3.10;;;;;;;13.22;58.16;98379.94;2086150;92;25755;-89
2022/01/04 11:06:42;;;;;;;7.65;3.75;;;;;;;13.22;58.16;98379.94;2108930;89;25765;-88
2022/01/04 11:10:18;;;;;;;4.97;4.37;;;;;;;13.20;58.12;98371.27;2211059;87;26138;-86
2022/01/04 11:14:02;;;;;;;4.20;3.55;;;;;;;13.20;58.28;98354.72;2246821;84;26608;-88
2022/01/04 11:17:37;;;;;;;;;;;;;;;;;;;;;
2022/01/04 11:21:01;;;;;;;8.83;4.65;;;;;;;13.19;58.14;98345.98;2288802;84;25340;-91
2022/01/04 11:24:35;;;;;;;5.22;4.08;;;;;;;13.35;58.21;98345.27;2345398;80;25817;-91
2022/01/04 11:32:24;;;;;;;4.92;4.33;;;;;;;13.33;58.28;98339.65;2379846;82;25295;-93
2022/01/04 11:36:16;;;;;;;;;;;;;;;;;;;;;
2022/01/04 11:40:07;;;;;;;;;;;;;;;;;;;;;
2022/01/04 11:43:41;;;;;;;8.38;4.70;;;;;;;13.12;57.85;98317.36;2340945;83;25824;-90
2022/01/04 11:47:35;;;;;;;6.87;4.15;;;;;;;13.03;57.79;98311.00;2272704;87;25850;-85
2022/01/04 11:51:31;;;;;;;4.70;3.47;;;;;;;12.96;57.83;98294.59;2138287;92;25898;-88
2022/01/04 11:55:26;;;;;;;7.53;4.20;;;;;;;12.91;57.91;98283.34;2146385;91;25770;-87
2022/01/04 11:59:09;;;;;;;5.47;3.92;;;;;;;12.84;57.86;98267.36;2142974;90;25900;-85
2022/01/04 12:02:50;;;;;;;7.40;4.08;;;;;;;12.84;57.86;98267.36;2079827;92;25750;-89
2022/01/04 12:06:45;;;;;;;7.92;3.80;;;;;;;12.81;57.89;98254.34;2090361;94;25714;-90
2022/01/04 12:10:33;;;;;;;7.08;3.90;;;;;;;12.63;57.83;98226.37;2029633;96;25727;-88
2022/01/04 12:14:27;;;;;;;;;;;;;;;;;;;;;
2022/01/04 12:17:42;;;;;;;5.67;4.10;;;;;;;12.56;57.85;98220.84;2019256;94;25849;-90
2022/01/04 12:21:26;;;;;;;5.53;4.00;;;;;;;12.52;57.86;98230.49;2036277;94;32544;-89
2022/01/04 12:25:10;;;;;;;7.10;4.42;;;;;;;12.45;57.96;98221.47;2084349;94;25858;-88
2022/01/04 12:29:11;;;;;;;7.45;4.60;;;;;;;12.42;58.08;98216.30;2095304;94;25785;-87
2022/01/04 12:32:35;;;;;;;5.65;4.40;;;;;;;12.41;58.26;98205.44;2120760;93;25747;-86
2022/01/04 12:36:00;;;;;;;8.88;4.53;;;;;;;12.44;58.43;98188.40;2109893;91;25703;-87
2022/01/04 12:39:41;;;;;;;7.42;3.98;;;;;;;12.45;58.53;98183.58;2121289;91;25803;-87
2022/01/04 12:43:27;;;;;;;7.37;4.15;;;;;;;12.45;58.59;98171.82;2121028;92;25748;-87
2022/01/04 12:47:20;;;;;;;5.45;3.72;;;;;;;12.50;58.77;98167.38;2148967;92;25688;-89
2022/01/04 12:50:43;;;;;;;7.40;4.53;;;;;;;12.55;58.83;98156.83;2129597;91;25802;-85
2022/01/04 12:55:10;;;;;;;5.15;3.72;;;;;;;12.56;58.83;98152.03;2082254;94;25861;-87
2022/01/04 12:58:40;;;;;;;8.93;4.80;;;;;;;12.55;58.86;98138.53;2086602;93;26264;-85
2022/01/04 13:02:20;;;;;;;7.33;5.83;;;;;;;12.51;58.94;98138.59;2043305;95;26389;-84
2022/01/04 13:06:14;;;;;;;7.40;4.58;;;;;;;12.52;59.02;98132.50;2138756;86;25950;-89
2022/01/04 13:10:15;;;;;;;6.08;4.60;;;;;;;12.53;59.13;98121.14;2310537;83;25828;-91
2022/01/04 13:13:38;;;;;;;7.05;4.90;;;;;;;12.52;59.11;98113.34;2317257;83;25196;-87
2022/01/04 13:17:22;;;;;;;8.33;4.92;;;;;;;12.49;59.18;98095.97;2224044;88;25677;-83
2022/01/04 13:20:53;;;;;;;8.53;5.10;;;;;;;12.51;59.20;98099.39;2167956;91;25830;-89
2022/01/04 13:28:25;;;;;;;6.33;4.45;;;;;;;12.47;59.22;98095.13;2201330;89;25903;-87
2022/01/04 13:32:18;;;;;;;7.70;5.25;;;;;;;12.45;59.29;98085.59;2181753;89;25968;-87
2022/01/04 13:40:03;;;;;;;5.58;4.40;;;;;;;12.45;59.46;98075.14;1996800;97;25847;-91
2022/01/04 13:43:50;;;;;;;8.83;5.10;;;;;;;12.45;59.52;98073.83;1977620;99;25859;-91
2022/01/04 13:47:54;;;;;;;7.30;4.92;;;;;;;12.44;59.53;98062.52;2010592;96;25811;-87
2022/01/04 13:51:34;;;;;;;6.28;4.95;;;;;;;12.42;59.62;98063.02;2043859;94;25825;-92
2022/01/04 13:55:10;;;;;;;6.42;5.12;;;;;;;12.42;59.71;98059.52;2054302;96;25962;-86
2022/01/04 13:58:52;;;;;;;6.47;4.50;;;;;;;12.43;59.84;98047.75;2054895;94;25714;-87
2022/01/04 14:02:30;;;;;;;7.10;4.58;;;;;;;12.47;60.03;98036.79;2053316;94;25760;-85
2022/01/04 14:10:58;;;;;;;8.25;4.80;;;;;;;12.48;60.22;98010.61;2007414;96;25678;-85
2022/01/04 14:14:38;;;;;;;6.65;5.42;;;;;;;12.52;60.28;98008.81;2029628;95;25939;-85
2022/01/04 14:18:15;;;;;;;6.22;5.22;;;;;;;12.53;60.38;97995.70;2073510;94;25733;-84
2022/01/04 14:21:59;;;;;;;8.43;5.67;;;;;;;12.54;60.44;97984.80;2072034;93;25719;-84
2022/01/04 14:25:39;;;;;;;6.27;5.30;;;;;;;12.54;60.37;97976.95;2120967;91;25935;-85
2022/01/04 14:30:09;;;;;;;8.10;6.33;;;;;;;12.53;60.35;97973.48;2160003;91;25962;-84
2022/01/04 14:33:38;;;;;;;6.60;5.95;;;;;;;12.49;60.37;97971.84;2107576;90;25683;-85
2022/01/04 14:37:15;;;;;;;13.13;6.45;;;;;;;12.48;60.46;97957.04;2145454;92;25434;-85
2022/01/04 14:40:43;;;;;;;7.08;6.25;;;;;;;12.47;60.43;97950.11;2145077;91;25860;-83
2022/01/04 14:44:32;;;;;;;13.45;6.45;;;;;;;12.46;60.53;97939.70;2155446;89;26017;-85
2022/01/04 14:53:01;;;;;;;8.45;6.40;;;;;;;12.46;60.59;97901.36;2108753;92;25822;-84
2022/01/04 14:56:35;;;;;;;10.63;6.42;;;;;;;12.46;60.69;97905.28;2102578;91;25653;-84
2022/01/04 15:00:58;;;;;;;8.58;6.25;;;;;;;12.47;60.68;97892.63;2105775;92;25889;-84
2022/01/04 15:04:27;;;;;;;9.50;7.00;;;;;;;12.50;60.75;97889.94;2110279;92;25994;-85
2022/01/04 15:08:06;;;;;;;9.23;6.92;;;;;;;12.51;60.68;97894.26;2154716;91;25975;-85
2022/01/04 15:11:34;;;;;;;9.45;6.80;;;;;;;12.49;60.68;97886.92;2172316;89;25790;-87
2022/01/04 15:15:24;;;;;;;11.53;8.13;;;;;;;12.47;60.63;97867.80;2171271;90;25776;-86
2022/01/04 15:18:47;;;;;;;8.63;7.85;;;;;;;12.44;60.49;97871.79;2175575;90;25964;-85
2022/01/04 15:22:39;;;;;;;8.63;7.75;;;;;;;12.39;60.44;97872.81;2187430;87;25708;-84
2022/01/04 15:26:05;;;;;;;9.40;8.40;;;;;;;12.36;60.44;97860.68;2340348;82;25693;-85
2022/01/04 15:29:36;;;;;;;13.03;8.95;;;;;;;12.33;60.40;97839.00;2335435;83;25888;-85
2022/01/04 15:33:17;;;;;;;;;;;;;;;;;;;;;
2022/01/04 15:36:48;;;;;;;12.43;7.90;;;;;;;12.23;60.46;97816.16;2350425;82;25672;-85
2022/01/04 15:40:30;;;;;;;12.68;8.20;;;;;;;12.21;60.46;97816.17;2351791;82;25573;-87
2022/01/04 15:44:08;;;;;;;8.98;7.83;;;;;;;12.17;60.47;97812.38;2201772;89;25486;-86
2022/01/04 15:47:43;;;;;;;12.30;8.08;;;;;;;12.14;60.57;97805.47;2206136;86;25815;-88
2022/01/04 15:51:42;;;;;;;10.50;8.58;;;;;;;12.13;60.67;97808.98;2148604;91;25961;-86
2022/01/04 15:55:19;;;;;;;9.18;8.10;;;;;;;12.12;60.73;97809.03;2073216;92;25935;-87
2022/01/04 15:58:40;;;;;;;10.68;8.15;;;;;;;12.09;60.74;97803.43;2120113;91;25617;-86
2022/01/04 16:02:36;;;;;;;9.85;8.45;;;;;;;12.08;60.82;97803.00;2059290;94;25892;-85
2022/01/04 16:06:05;;;;;;;7.60;6.85;;;;;;;12.07;60.84;97786.08;2013620;97;25998;-88
2022/01/04 16:13:02;;;;;;;9.40;7.55;;;;;;;12.08;61.04;97786.02;1930881;100;25935;-86
2022/01/04 16:24:42;;;;;;;7.83;7.08;;;;;;;12.17;61.20;97761.00;1954002;100;25938;-85
2022/01/04 16:28:15;;;;;;;9.88;7.37;;;;;;;12.18;61.15;97751.41;1956989;99;26210;-85
2022/01/04 16:31:49;;;;;;;10.15;7.28;;;;;;;12.23;61.14;97744.33;1961547;99;26177;-83
2022/01/04 16:35:17;;;;;;;8.33;6.28;;;;;;;12.24;61.11;97743.42;1961639;99;26014;-84
2022/01/04 16:38:51;;;;;;;7.67;6.92;;;;;;;12.27;61.06;97736.81;1971719;98;26592;-85
2022/01/04 16:46:58;;;;;;;9.05;6.70;;;;;;;12.38;62.94;97739.15;1904589;100;26018;-85
2022/01/04 16:50:32;;;;;;;12.73;7.28;;;;;;;12.67;62.40;97730.09;1894151;101;26032;-84
2022/01/04 16:53:57;;;;;;;9.63;6.53;;;;;;;12.69;62.17;97730.92;1898118;101;25982;-82
2022/01/04 16:57:33;;;;;;;8.83;5.92;;;;;;;12.66;62.09;97727.08;1914099;101;25922;-85
2022/01/04 17:01:11;;;;;;;8.95;6.17;;;;;;;12.65;62.05;97730.56;1905802;100;26466;-82
2022/01/04 17:05:03;;;;;;;;;;;;;;;;;;;;;
2022/01/04 17:08:45;;;;;;;11.15;6.35;;;;;;;12.65;61.86;97711.42;1880147;103;25906;-84
2022/01/04 17:16:12;;;;;;;;;;;;;;;12.65;61.69;97696.59;1834520;105;26299;-83
2022/01/04 17:19:54;;;;;;;9.68;6.58;;;;;;;12.64;61.61;97677.91;1872886;104;25921;-86
2022/01/04 17:27:28;;;;;;;8.90;6.05;;;;;;;12.64;61.46;97660.06;1819464;107;25839;-83
2022/01/04 17:31:03;;;;;;;7.47;6.42;;;;;;;12.64;61.41;97656.14;1834445;105;25926;-86
2022/01/04 17:34:37;;;;;;;8.98;5.95;;;;;;;12.65;61.36;97650.86;1816796;107;26344;-84
2022/01/04 17:38:24;;;;;;;7.25;6.45;;;;;;;12.66;61.31;97649.98;1829656;106;26304;-84
2022/01/04 17:41:51;;;;;;;9.65;6.65;;;;;;;12.66;61.26;97651.29;1852932;105;26542;-86
2022/01/04 17:45:17;;;;;;;6.65;5.80;;;;;;;12.68;61.21;97649.92;1891815;102;25846;-85
2022/01/04 17:48:58;;;;;;;9.37;5.77;;;;;;;12.67;61.16;97641.23;1908549;101;25973;-83
2022/01/04 17:52:54;;;;;;;11.60;7.28;;;;;;;12.67;61.10;97636.00;1903117;102;25998;-83
2022/01/04 17:56:20;;;;;;;8.88;6.78;;;;;;;12.70;61.05;97644.21;1890190;103;25967;-84
2022/01/04 17:59:49;;;;;;;11.70;7.28;;;;;;;12.68;60.99;97630.32;1867558;101;25932;-86
2022/01/04 18:03:32;;;;;;;10.20;6.53;;;;;;;12.68;60.96;97623.33;1904882;94;25909;-88
2022/01/04 18:06:59;;;;;;;7.83;6.65;;;;;;;12.68;60.95;97620.72;2070186;94;25985;-83
2022/01/04 18:10:30;;;;;;;8.00;6.83;;;;;;;12.67;60.90;97611.17;1985697;97;26015;-83
2022/01/04 18:14:18;;;;;;;8.38;7.45;;;;;;;12.69;60.88;97614.61;1987548;97;26455;-83
2022/01/04 18:18:08;;;;;;;8.85;6.90;;;;;;;12.70;60.85;97597.17;1990087;99;26117;-83
2022/01/04 18:21:42;;;;;;;7.60;6.78;;;;;;;12.68;60.84;97591.97;2020873;96;25720;-85
2022/01/04 18:25:12;;;;;;;8.85;6.70;;;;;;;12.70;60.82;97591.94;1960460;97;25816;-83
2022/01/04 18:28:52;;;;;;;10.43;6.85;;;;;;;12.69;60.78;97588.90;1986492;97;26044;-82
2022/01/04 18:32:22;;;;;;;9.23;7.70;;;;;;;12.69;60.79;97587.17;1979254;97;25900;-83
2022/01/04 18:39:37;;;;;;;7.72;6.87;;;;;;;12.70;60.77;97572.34;2008930;95;25875;-81
2022/01/04 18:43:03;;;;;;;9.25;6.95;;;;;;;12.68;60.76;97568.45;1943050;97;25840;-83
2022/01/04 18:46:38;;;;;;;7.70;6.90;;;;;;;12.69;60.74;97564.95;1952937;98;25863;-86
2022/01/04 18:50:10;;;;;;;8.35;7.53;;;;;;;12.70;60.76;97565.34;1857486;102;25836;-83
2022/01/04 18:53:47;;;;;;;7.75;7.00;;;;;;;12.70;60.75;97565.34;1843028;106;25863;-83
2022/01/04 18:57:17;;;;;;;8.28;6.87;;;;;;;12.70;60.76;97555.34;1865040;104;26536;-83
2022/01/04 19:00:49;;;;;;;9.00;7.00;;;;;;;12.70;60.76;97559.27;1862187;103;25909;-83
2022/01/04 19:04:18;;;;;;;8.30;5.95;;;;;;;12.71;60.77;97555.75;1859310;104;25856;-84
2022/01/04 19:08:03;;;;;;;6.67;5.83;;;;;;;12.73;60.78;97553.95;1891698;103;25977;-84
2022/01/04 19:11:40;;;;;;;7.22;5.97;;;;;;;12.73;60.78;97546.97;1885461;102;25833;-85
2022/01/04 19:15:12;;;;;;;6.85;5.97;;;;;;;12.75;60.77;97544.28;1862950;102;25839;-85
2022/01/04 19:18:43;;;;;;;6.42;5.83;;;;;;;12.76;60.78;97549.94;1874792;103;26463;-85
2022/01/04 19:22:28;;;;;;;;;;;;;;;;;;;;;
2022/01/04 19:26:06;;;;;;;;;;;;;;;;;;;;;
2022/01/04 19:29:35;;;;;;;6.72;6.00;;;;;;;12.80;60.79;97550.70;1809553;103;26560;-84
2022/01/04 19:36:34;;;;;;;6.55;5.22;;;;;;;12.71;61.05;97528.30;1851415;104;25902;-84
2022/01/04 19:40:19;;;;;;;;;;;;;;;;;;;;;
2022/01/04 19:47:10;;;;;;;;;;;;;;;12.86;60.75;97547.45;1944661;95;26074;-85
2022/01/04 19:50:37;;;;;;;6.55;5.75;;;;;;;12.88;60.77;97546.93;1980244;98;25771;-86
2022/01/04 19:54:19;;;;;;;6.00;5.30;;;;;;;12.89;60.74;97553.01;1980932;99;25347;-87
2022/01/04 19:57:45;;;;;;;5.75;5.22;;;;;;;12.91;60.76;97532.91;2029258;96;25840;-85
2022/01/04 20:01:27;;;;;;;8.10;5.12;;;;;;;12.94;60.74;97534.13;2041825;95;25805;-89
2022/01/04 20:05:09;;;;;;;5.50;4.90;;;;;;;12.95;60.72;97533.22;2046713;93;25785;-88
2022/01/04 20:08:43;;;;;;;6.40;5.17;;;;;;;12.97;60.73;97530.96;2043038;95;25832;-84
2022/01/04 20:12:13;;;;;;;6.05;4.70;;;;;;;12.95;60.81;97528.84;1984210;97;26488;-87
2022/01/04 20:15:44;;;;;;;7.03;5.05;;;;;;;12.95;60.85;97530.14;1892718;103;25777;-86
2022/01/04 20:19:15;;;;;;;5.92;5.33;;;;;;;12.94;60.90;97531.05;1857897;104;26554;-84
2022/01/04 20:23:07;;;;;;;7.15;5.50;;;;;;;12.95;60.91;97522.75;1937261;100;25835;-86
2022/01/04 20:26:52;;;;;;;;;;;;;;;;;;;;;
2022/01/04 20:30:26;;;;;;;5.87;5.33;;;;;;;12.95;60.98;97538.45;1907215;100;26255;-86
2022/01/04 20:34:14;;;;;;;7.12;5.55;;;;;;;12.94;61.01;97548.51;1911617;101;25804;-86
2022/01/04 20:37:50;;;;;;;;;;;;;;;;;;;;;
2022/01/04 20:41:22;;;;;;;6.70;6.00;;;;;;;12.94;61.07;97558.97;1910003;100;26046;-84
2022/01/04 20:44:51;;;;;;;6.75;5.97;;;;;;;12.92;61.07;97558.15;1854881;103;26494;-88
2022/01/04 20:48:17;;;;;;;8.30;7.50;;;;;;;12.91;61.08;97569.52;1805877;105;25757;-87
2022/01/04 20:51:55;;;;;;;7.25;6.55;;;;;;;12.90;61.11;97586.12;1821197;105;25373;-85
2022/01/04 20:55:53;;;;;;;7.92;7.22;;;;;;;12.90;61.10;97580.89;1873321;103;25896;-85
2022/01/04 21:03:23;;;;;;;7.83;7.00;;;;;;;12.88;61.13;97594.45;1850731;105;26468;-87
2022/01/04 21:06:46;;;;;;;9.25;7.67;;;;;;;12.87;61.14;97604.51;1899106;102;26223;-87
2022/01/04 21:10:31;;;;;;;;;;;;;;;;;;;;;
2022/01/04 21:17:49;;;;;;;;;;;;;;;;;;;;;
2022/01/04 21:21:26;;;;;;;6.53;5.85;;;;;;;12.87;60.99;97656.34;2074225;92;25775;-86
2022/01/04 21:25:29;;;;;;;;;;;;;;;;;;;;;
2022/01/04 21:29:10;;;;;;;6.15;5.55;;;;;;;12.85;60.96;97676.88;2059596;92;25775;-88
2022/01/04 21:32:59;;;;;;;;;;;;;;;;;;;;;
2022/01/04 21:53:15;;;;;;;4.45;3.92;;;;;;;12.80;60.77;97691.86;1848230;104;26594;-88
2022/01/04 21:57:54;;;;;;;4.00;3.60;;;;;;;12.72;60.54;97696.86;1811787;103;25895;-86